Humptulips, Washington
Current Conditions -  °F | °C
As of 5:53 PM on Friday 31 Oct 2014 (Local Time) from KHQM Reporting Station
Scattered Clouds Scattered Clouds  
Wind Chill: 53°   Ceiling: Unl
Heat Index: 53°   Visibility: 7mi
Dew Point: 48°   Wind: 3mph
Humidity: 83%   Direction: 200°SSW
Pressure: 29.84"   Gusts: NA
Location:  47.23°N, 123.96°W
Report Text: KHQM 010053Z AUTO 20003KT 7SM SCT080 12/09 A2984 RMK AO2 SLP107 T01170089
Loading
Personal Weather Stations






























Interactive Weather Map
Tropical Storm Tracking
New forecast layout! Learn more

10-Day Weather Forecast

Advertisements
Track Severe Weather on mobile